sensor_id;sensor_type;location;lat;lon;timestamp;temperature;humidity
2459;DHT22;1241;50.920;6.936;2022-12-05T00:00:35;4.30;99.90
2459;DHT22;1241;50.920;6.936;2022-12-05T00:03:04;4.30;99.90
2459;DHT22;1241;50.920;6.936;2022-12-05T00:05:30;4.30;99.90
2459;DHT22;1241;50.920;6.936;2022-12-05T00:07:56;4.20;99.90
2459;DHT22;1241;50.920;6.936;2022-12-05T00:10:22;4.20;99.90
2459;DHT22;1241;50.920;6.936;2022-12-05T00:12:47;4.30;99.90
2459;DHT22;1241;50.920;6.936;2022-12-05T00:15:13;4.30;99.90
2459;DHT22;1241;50.920;6.936;2022-12-05T00:17:39;4.30;99.90
2459;DHT22;1241;50.920;6.936;2022-12-05T00:20:06;4.20;99.90
2459;DHT22;1241;50.920;6.936;2022-12-05T00:22:35;4.10;99.90
2459;DHT22;1241;50.920;6.936;2022-12-05T00:25:06;4.00;99.90
2459;DHT22;1241;50.920;6.936;2022-12-05T00:27:32;3.90;99.90
2459;DHT22;1241;50.920;6.936;2022-12-05T00:29:58;3.90;99.90
2459;DHT22;1241;50.920;6.936;2022-12-05T00:32:24;3.80;99.90
2459;DHT22;1241;50.920;6.936;2022-12-05T00:34:51;3.80;99.90
2459;DHT22;1241;50.920;6.936;2022-12-05T00:37:16;3.80;99.90
2459;DHT22;1241;50.920;6.936;2022-12-05T00:39:42;3.80;99.90
2459;DHT22;1241;50.920;6.936;2022-12-05T00:42:08;3.90;99.90
2459;DHT22;1241;50.920;6.936;2022-12-05T00:44:33;4.00;99.90
2459;DHT22;1241;50.920;6.936;2022-12-05T00:46:59;3.90;99.90
2459;DHT22;1241;50.920;6.936;2022-12-05T00:49:25;3.90;99.90
2459;DHT22;1241;50.920;6.936;2022-12-05T00:51:50;3.90;99.90
2459;DHT22;1241;50.920;6.936;2022-12-05T00:54:17;4.00;99.90
2459;DHT22;1241;50.920;6.936;2022-12-05T00:56:43;3.90;99.90
2459;DHT22;1241;50.920;6.936;2022-12-05T00:59:14;3.90;99.90
2459;DHT22;1241;50.920;6.936;2022-12-05T01:01:42;4.00;99.90
2459;DHT22;1241;50.920;6.936;2022-12-05T01:04:11;3.90;99.90
2459;DHT22;1241;50.920;6.936;2022-12-05T01:06:38;4.00;99.90
2459;DHT22;1241;50.920;6.936;2022-12-05T01:09:04;4.00;99.90
2459;DHT22;1241;50.920;6.936;2022-12-05T01:11:30;4.10;99.90
2459;DHT22;1241;50.920;6.936;2022-12-05T01:13:56;4.00;99.90
2459;DHT22;1241;50.920;6.936;2022-12-05T01:16:32;4.10;99.90
2459;DHT22;1241;50.920;6.936;2022-12-05T01:18:59;4.20;99.90
2459;DHT22;1241;50.920;6.936;2022-12-05T01:21:25;4.30;99.90
2459;DHT22;1241;50.920;6.936;2022-12-05T01:23:51;4.40;99.90
2459;DHT22;1241;50.920;6.936;2022-12-05T01:26:19;4.30;99.90
2459;DHT22;1241;50.920;6.936;2022-12-05T01:28:46;4.30;99.90
2459;DHT22;1241;50.920;6.936;2022-12-05T01:33:42;4.40;99.90
2459;DHT22;1241;50.920;6.936;2022-12-05T01:36:10;4.50;99.90
2459;DHT22;1241;50.920;6.936;2022-12-05T01:38:40;4.40;99.90
2459;DHT22;1241;50.920;6.936;2022-12-05T01:41:10;4.30;99.90
2459;DHT22;1241;50.920;6.936;2022-12-05T01:46:34;4.50;99.90
2459;DHT22;1241;50.920;6.936;2022-12-05T01:51:38;4.60;99.90
2459;DHT22;1241;50.920;6.936;2022-12-05T01:54:05;4.60;99.90
2459;DHT22;1241;50.920;6.936;2022-12-05T01:56:32;4.60;99.90
2459;DHT22;1241;50.920;6.936;2022-12-05T01:58:59;4.70;99.90
2459;DHT22;1241;50.920;6.936;2022-12-05T02:01:26;4.60;99.90
2459;DHT22;1241;50.920;6.936;2022-12-05T02:03:54;4.60;99.90
2459;DHT22;1241;50.920;6.936;2022-12-05T02:06:23;4.60;99.90
2459;DHT22;1241;50.920;6.936;2022-12-05T02:08:50;4.50;99.90
2459;DHT22;1241;50.920;6.936;2022-12-05T02:11:17;4.40;99.90
2459;DHT22;1241;50.920;6.936;2022-12-05T02:14:01;4.20;99.90
2459;DHT22;1241;50.920;6.936;2022-12-05T02:16:55;4.10;99.90
2459;DHT22;1241;50.920;6.936;2022-12-05T02:30:01;4.30;99.90
2459;DHT22;1241;50.920;6.936;2022-12-05T02:39:13;4.30;99.90
2459;DHT22;1241;50.920;6.936;2022-12-05T02:46:44;4.20;99.90
2459;DHT22;1241;50.920;6.936;2022-12-05T02:49:17;4.30;99.90
2459;DHT22;1241;50.920;6.936;2022-12-05T02:51:49;4.40;99.90
2459;DHT22;1241;50.920;6.936;2022-12-05T02:54:19;4.50;99.90
2459;DHT22;1241;50.920;6.936;2022-12-05T02:56:46;4.60;99.90
2459;DHT22;1241;50.920;6.936;2022-12-05T02:59:13;4.70;99.90
2459;DHT22;1241;50.920;6.936;2022-12-05T03:01:39;4.70;99.90
2459;DHT22;1241;50.920;6.936;2022-12-05T03:04:08;4.70;99.90
2459;DHT22;1241;50.920;6.936;2022-12-05T03:09:44;4.50;99.90
2459;DHT22;1241;50.920;6.936;2022-12-05T03:12:18;4.30;99.90
2459;DHT22;1241;50.920;6.936;2022-12-05T03:15:13;4.30;99.90
2459;DHT22;1241;50.920;6.936;2022-12-05T03:17:43;4.30;99.90
2459;DHT22;1241;50.920;6.936;2022-12-05T03:20:37;4.20;99.90
2459;DHT22;1241;50.920;6.936;2022-12-05T03:23:16;4.20;99.90
2459;DHT22;1241;50.920;6.936;2022-12-05T03:26:00;4.10;99.90
2459;DHT22;1241;50.920;6.936;2022-12-05T03:28:36;4.10;99.90
2459;DHT22;1241;50.920;6.936;2022-12-05T03:31:09;3.90;99.90
2459;DHT22;1241;50.920;6.936;2022-12-05T03:33:40;3.80;99.90
2459;DHT22;1241;50.920;6.936;2022-12-05T03:36:17;3.80;99.90
2459;DHT22;1241;50.920;6.936;2022-12-05T03:41:26;3.60;99.90
2459;DHT22;1241;50.920;6.936;2022-12-05T03:44:16;3.40;99.90
2459;DHT22;1241;50.920;6.936;2022-12-05T03:46:50;3.40;99.90
2459;DHT22;1241;50.920;6.936;2022-12-05T03:52:13;3.30;99.90
2459;DHT22;1241;50.920;6.936;2022-12-05T03:54:52;3.20;99.90
2459;DHT22;1241;50.920;6.936;2022-12-05T03:57:26;3.20;99.90
2459;DHT22;1241;50.920;6.936;2022-12-05T04:00:06;3.20;99.90
2459;DHT22;1241;50.920;6.936;2022-12-05T04:02:51;3.20;99.90
2459;DHT22;1241;50.920;6.936;2022-12-05T04:05:20;3.20;99.90
2459;DHT22;1241;50.920;6.936;2022-12-05T04:07:52;3.20;99.90
2459;DHT22;1241;50.920;6.936;2022-12-05T04:10:24;3.20;99.90
2459;DHT22;1241;50.920;6.936;2022-12-05T04:12:53;3.30;99.90
2459;DHT22;1241;50.920;6.936;2022-12-05T04:15:24;3.20;99.90
2459;DHT22;1241;50.920;6.936;2022-12-05T04:17:58;3.10;99.90
2459;DHT22;1241;50.920;6.936;2022-12-05T04:20:39;3.10;99.90
2459;DHT22;1241;50.920;6.936;2022-12-05T04:23:25;3.20;99.90
2459;DHT22;1241;50.920;6.936;2022-12-05T04:28:37;3.20;99.90
2459;DHT22;1241;50.920;6.936;2022-12-05T04:31:07;3.20;99.90
2459;DHT22;1241;50.920;6.936;2022-12-05T04:33:59;3.30;99.90
2459;DHT22;1241;50.920;6.936;2022-12-05T04:36:44;3.30;99.90
2459;DHT22;1241;50.920;6.936;2022-12-05T04:39:13;3.40;99.90
2459;DHT22;1241;50.920;6.936;2022-12-05T04:41:52;3.40;99.90
2459;DHT22;1241;50.920;6.936;2022-12-05T04:44:22;3.40;99.90
2459;DHT22;1241;50.920;6.936;2022-12-05T04:46:50;3.40;99.90
2459;DHT22;1241;50.920;6.936;2022-12-05T04:49:22;3.40;99.90
2459;DHT22;1241;50.920;6.936;2022-12-05T04:51:51;3.30;99.90
2459;DHT22;1241;50.920;6.936;2022-12-05T04:54:27;3.30;99.90
2459;DHT22;1241;50.920;6.936;2022-12-05T04:56:58;3.40;99.90
2459;DHT22;1241;50.920;6.936;2022-12-05T04:59:25;3.40;99.90
2459;DHT22;1241;50.920;6.936;2022-12-05T05:01:55;3.50;99.90
2459;DHT22;1241;50.920;6.936;2022-12-05T05:04:28;3.60;99.90
2459;DHT22;1241;50.920;6.936;2022-12-05T05:06:56;3.60;99.90
2459;DHT22;1241;50.920;6.936;2022-12-05T05:09:22;3.60;99.90
2459;DHT22;1241;50.920;6.936;2022-12-05T05:11:48;3.60;99.90
2459;DHT22;1241;50.920;6.936;2022-12-05T05:14:13;3.60;99.90
2459;DHT22;1241;50.920;6.936;2022-12-05T05:16:41;3.50;99.90
2459;DHT22;1241;50.920;6.936;2022-12-05T05:19:09;3.50;99.90
2459;DHT22;1241;50.920;6.936;2022-12-05T05:21:40;3.60;99.90
2459;DHT22;1241;50.920;6.936;2022-12-05T05:24:07;3.60;99.90
2459;DHT22;1241;50.920;6.936;2022-12-05T05:26:36;3.60;99.90
2459;DHT22;1241;50.920;6.936;2022-12-05T05:29:03;3.60;99.90
2459;DHT22;1241;50.920;6.936;2022-12-05T05:31:29;3.60;99.90
2459;DHT22;1241;50.920;6.936;2022-12-05T05:33:55;3.60;99.90
2459;DHT22;1241;50.920;6.936;2022-12-05T05:36:24;3.60;99.90
2459;DHT22;1241;50.920;6.936;2022-12-05T05:38:56;3.60;99.90
2459;DHT22;1241;50.920;6.936;2022-12-05T05:41:25;3.70;99.90
2459;DHT22;1241;50.920;6.936;2022-12-05T05:43:51;3.70;99.90
2459;DHT22;1241;50.920;6.936;2022-12-05T05:46:20;3.70;99.90
2459;DHT22;1241;50.920;6.936;2022-12-05T05:48:46;3.70;99.90
2459;DHT22;1241;50.920;6.936;2022-12-05T05:51:14;3.70;99.90
2459;DHT22;1241;50.920;6.936;2022-12-05T05:53:40;3.70;99.90
2459;DHT22;1241;50.920;6.936;2022-12-05T05:56:11;3.70;99.90
2459;DHT22;1241;50.920;6.936;2022-12-05T05:58:38;3.70;99.90
2459;DHT22;1241;50.920;6.936;2022-12-05T06:01:12;3.70;99.90
2459;DHT22;1241;50.920;6.936;2022-12-05T06:03:38;3.70;99.90
2459;DHT22;1241;50.920;6.936;2022-12-05T06:06:07;3.70;99.90
2459;DHT22;1241;50.920;6.936;2022-12-05T06:08:36;3.80;99.90
2459;DHT22;1241;50.920;6.936;2022-12-05T06:11:13;3.80;99.90
2459;DHT22;1241;50.920;6.936;2022-12-05T06:13:40;3.80;99.90
2459;DHT22;1241;50.920;6.936;2022-12-05T06:16:08;3.70;99.90
2459;DHT22;1241;50.920;6.936;2022-12-05T06:18:34;3.70;99.90
2459;DHT22;1241;50.920;6.936;2022-12-05T06:21:00;3.80;99.90
2459;DHT22;1241;50.920;6.936;2022-12-05T06:23:26;3.80;99.90
2459;DHT22;1241;50.920;6.936;2022-12-05T06:25:54;3.90;99.90
2459;DHT22;1241;50.920;6.936;2022-12-05T06:28:24;3.90;99.90
2459;DHT22;1241;50.920;6.936;2022-12-05T06:30:50;3.90;99.90
2459;DHT22;1241;50.920;6.936;2022-12-05T06:33:16;3.90;99.90
2459;DHT22;1241;50.920;6.936;2022-12-05T06:35:42;4.00;99.90
2459;DHT22;1241;50.920;6.936;2022-12-05T06:38:09;3.90;99.90
2459;DHT22;1241;50.920;6.936;2022-12-05T06:40:39;3.90;99.90
2459;DHT22;1241;50.920;6.936;2022-12-05T06:43:05;4.00;99.90
2459;DHT22;1241;50.920;6.936;2022-12-05T06:45:30;4.00;99.90
2459;DHT22;1241;50.920;6.936;2022-12-05T06:47:56;4.00;99.90
2459;DHT22;1241;50.920;6.936;2022-12-05T06:50:22;3.90;99.90
2459;DHT22;1241;50.920;6.936;2022-12-05T06:52:49;4.00;99.90
2459;DHT22;1241;50.920;6.936;2022-12-05T06:55:15;4.00;99.90
2459;DHT22;1241;50.920;6.936;2022-12-05T06:57:40;4.10;99.90
2459;DHT22;1241;50.920;6.936;2022-12-05T07:00:07;4.10;99.90
2459;DHT22;1241;50.920;6.936;2022-12-05T07:02:52;4.10;99.90
2459;DHT22;1241;50.920;6.936;2022-12-05T07:05:18;4.20;99.90
2459;DHT22;1241;50.920;6.936;2022-12-05T07:07:44;4.20;99.90
2459;DHT22;1241;50.920;6.936;2022-12-05T07:10:10;4.20;99.90
2459;DHT22;1241;50.920;6.936;2022-12-05T07:12:36;4.30;99.90
2459;DHT22;1241;50.920;6.936;2022-12-05T07:15:02;4.30;99.90
2459;DHT22;1241;50.920;6.936;2022-12-05T07:17:28;4.20;99.90
2459;DHT22;1241;50.920;6.936;2022-12-05T07:19:54;4.10;99.90
2459;DHT22;1241;50.920;6.936;2022-12-05T07:22:21;3.90;99.90
2459;DHT22;1241;50.920;6.936;2022-12-05T07:24:47;3.90;99.90
2459;DHT22;1241;50.920;6.936;2022-12-05T07:27:15;4.00;99.90
2459;DHT22;1241;50.920;6.936;2022-12-05T07:29:41;3.90;99.90
2459;DHT22;1241;50.920;6.936;2022-12-05T07:32:07;4.10;99.90
2459;DHT22;1241;50.920;6.936;2022-12-05T07:34:32;4.20;99.90
2459;DHT22;1241;50.920;6.936;2022-12-05T07:36:59;4.30;99.90
2459;DHT22;1241;50.920;6.936;2022-12-05T07:39:24;4.30;99.90
2459;DHT22;1241;50.920;6.936;2022-12-05T07:41:50;4.30;99.90
2459;DHT22;1241;50.920;6.936;2022-12-05T07:44:16;4.20;99.90
2459;DHT22;1241;50.920;6.936;2022-12-05T07:46:42;4.20;99.90
2459;DHT22;1241;50.920;6.936;2022-12-05T07:49:07;4.30;99.90
2459;DHT22;1241;50.920;6.936;2022-12-05T07:51:34;4.30;99.90
2459;DHT22;1241;50.920;6.936;2022-12-05T07:54:00;4.30;99.90
2459;DHT22;1241;50.920;6.936;2022-12-05T07:56:27;4.30;99.90
2459;DHT22;1241;50.920;6.936;2022-12-05T07:58:52;4.40;99.90
2459;DHT22;1241;50.920;6.936;2022-12-05T08:01:20;4.50;99.90
2459;DHT22;1241;50.920;6.936;2022-12-05T08:03:47;4.50;99.90
2459;DHT22;1241;50.920;6.936;2022-12-05T08:06:15;4.50;99.90
2459;DHT22;1241;50.920;6.936;2022-12-05T08:08:42;4.50;99.90
2459;DHT22;1241;50.920;6.936;2022-12-05T08:11:19;4.60;99.90
2459;DHT22;1241;50.920;6.936;2022-12-05T08:13:45;4.50;99.90
2459;DHT22;1241;50.920;6.936;2022-12-05T08:16:13;4.20;99.90
2459;DHT22;1241;50.920;6.936;2022-12-05T08:18:41;4.30;99.90
2459;DHT22;1241;50.920;6.936;2022-12-05T08:21:12;4.30;99.90
2459;DHT22;1241;50.920;6.936;2022-12-05T08:23:38;4.40;99.90
2459;DHT22;1241;50.920;6.936;2022-12-05T08:26:07;4.40;99.90
2459;DHT22;1241;50.920;6.936;2022-12-05T08:28:34;4.40;99.90
2459;DHT22;1241;50.920;6.936;2022-12-05T08:31:11;4.30;99.90
2459;DHT22;1241;50.920;6.936;2022-12-05T08:33:38;4.40;99.90
2459;DHT22;1241;50.920;6.936;2022-12-05T08:36:06;4.50;99.90
2459;DHT22;1241;50.920;6.936;2022-12-05T08:38:33;4.70;99.90
2459;DHT22;1241;50.920;6.936;2022-12-05T08:41:00;4.80;99.90
2459;DHT22;1241;50.920;6.936;2022-12-05T08:43:28;4.80;99.90
2459;DHT22;1241;50.920;6.936;2022-12-05T08:45:53;4.80;99.90
2459;DHT22;1241;50.920;6.936;2022-12-05T08:48:19;4.90;99.90
2459;DHT22;1241;50.920;6.936;2022-12-05T08:50:45;4.90;99.90
2459;DHT22;1241;50.920;6.936;2022-12-05T08:53:11;4.90;99.90
2459;DHT22;1241;50.920;6.936;2022-12-05T08:55:37;5.00;99.90
2459;DHT22;1241;50.920;6.936;2022-12-05T08:58:03;5.10;99.90
2459;DHT22;1241;50.920;6.936;2022-12-05T09:00:29;5.10;99.90
2459;DHT22;1241;50.920;6.936;2022-12-05T09:02:56;5.00;99.90
2459;DHT22;1241;50.920;6.936;2022-12-05T09:05:23;5.10;99.90
2459;DHT22;1241;50.920;6.936;2022-12-05T09:07:49;5.10;99.90
2459;DHT22;1241;50.920;6.936;2022-12-05T09:10:14;5.00;99.90
2459;DHT22;1241;50.920;6.936;2022-12-05T09:12:40;5.00;99.90
2459;DHT22;1241;50.920;6.936;2022-12-05T09:15:07;5.10;99.90
2459;DHT22;1241;50.920;6.936;2022-12-05T09:17:33;5.20;99.90
2459;DHT22;1241;50.920;6.936;2022-12-05T09:19:59;5.10;99.90
2459;DHT22;1241;50.920;6.936;2022-12-05T09:22:24;5.10;99.90
2459;DHT22;1241;50.920;6.936;2022-12-05T09:24:50;5.20;99.90
2459;DHT22;1241;50.920;6.936;2022-12-05T09:27:16;5.20;99.90
2459;DHT22;1241;50.920;6.936;2022-12-05T09:29:42;5.30;99.90
2459;DHT22;1241;50.920;6.936;2022-12-05T09:32:08;5.20;99.90
2459;DHT22;1241;50.920;6.936;2022-12-05T09:34:35;5.10;99.90
2459;DHT22;1241;50.920;6.936;2022-12-05T09:37:02;5.10;99.90
2459;DHT22;1241;50.920;6.936;2022-12-05T09:39:28;5.20;99.90
2459;DHT22;1241;50.920;6.936;2022-12-05T09:42:32;5.20;99.90
2459;DHT22;1241;50.920;6.936;2022-12-05T09:50:24;5.30;99.90
2459;DHT22;1241;50.920;6.936;2022-12-05T09:52:57;5.40;99.90
2459;DHT22;1241;50.920;6.936;2022-12-05T09:55:28;5.40;99.90
2459;DHT22;1241;50.920;6.936;2022-12-05T09:57:57;5.40;99.90
2459;DHT22;1241;50.920;6.936;2022-12-05T10:00:25;5.30;99.90
2459;DHT22;1241;50.920;6.936;2022-12-05T10:03:21;5.40;99.90
2459;DHT22;1241;50.920;6.936;2022-12-05T10:06:04;5.50;99.90
2459;DHT22;1241;50.920;6.936;2022-12-05T10:11:49;5.50;99.90
2459;DHT22;1241;50.920;6.936;2022-12-05T10:17:37;5.80;99.90
2459;DHT22;1241;50.920;6.936;2022-12-05T10:20:12;5.70;99.90
2459;DHT22;1241;50.920;6.936;2022-12-05T10:22:49;5.70;99.90
2459;DHT22;1241;50.920;6.936;2022-12-05T10:25:21;5.80;99.90
2459;DHT22;1241;50.920;6.936;2022-12-05T10:27:55;5.90;99.90
2459;DHT22;1241;50.920;6.936;2022-12-05T10:30:23;5.90;99.90
2459;DHT22;1241;50.920;6.936;2022-12-05T10:32:58;6.00;99.90
2459;DHT22;1241;50.920;6.936;2022-12-05T10:35:33;6.00;99.90
2459;DHT22;1241;50.920;6.936;2022-12-05T10:38:22;5.80;99.90
2459;DHT22;1241;50.920;6.936;2022-12-05T10:40:52;5.80;99.90
2459;DHT22;1241;50.920;6.936;2022-12-05T10:43:25;5.90;99.90
2459;DHT22;1241;50.920;6.936;2022-12-05T10:45:52;5.90;99.90
2459;DHT22;1241;50.920;6.936;2022-12-05T10:48:19;5.90;99.90
2459;DHT22;1241;50.920;6.936;2022-12-05T10:50:47;5.90;99.90
2459;DHT22;1241;50.920;6.936;2022-12-05T10:53:20;6.00;99.90
2459;DHT22;1241;50.920;6.936;2022-12-05T10:55:48;6.00;99.90
2459;DHT22;1241;50.920;6.936;2022-12-05T10:58:19;6.10;99.90
2459;DHT22;1241;50.920;6.936;2022-12-05T11:00:51;6.00;99.90
2459;DHT22;1241;50.920;6.936;2022-12-05T11:03:38;6.10;99.90
2459;DHT22;1241;50.920;6.936;2022-12-05T11:08:39;6.10;99.90
2459;DHT22;1241;50.920;6.936;2022-12-05T11:11:19;6.10;99.90
2459;DHT22;1241;50.920;6.936;2022-12-05T11:14:02;6.10;99.90
2459;DHT22;1241;50.920;6.936;2022-12-05T11:18:55;6.10;99.90
2459;DHT22;1241;50.920;6.936;2022-12-05T11:21:21;6.10;99.90
2459;DHT22;1241;50.920;6.936;2022-12-05T11:23:47;6.10;99.90
2459;DHT22;1241;50.920;6.936;2022-12-05T11:26:35;6.10;99.90
2459;DHT22;1241;50.920;6.936;2022-12-05T11:29:03;6.10;99.90
2459;DHT22;1241;50.920;6.936;2022-12-05T11:31:30;6.10;99.90
2459;DHT22;1241;50.920;6.936;2022-12-05T11:34:10;6.10;99.90
2459;DHT22;1241;50.920;6.936;2022-12-05T11:36:49;6.00;99.90
2459;DHT22;1241;50.920;6.936;2022-12-05T11:39:16;5.90;99.90
2459;DHT22;1241;50.920;6.936;2022-12-05T11:50:41;5.70;99.90
2459;DHT22;1241;50.920;6.936;2022-12-05T11:53:45;5.70;99.90
2459;DHT22;1241;50.920;6.936;2022-12-05T12:01:43;5.50;99.90
2459;DHT22;1241;50.920;6.936;2022-12-05T12:10:11;5.50;99.90
2459;DHT22;1241;50.920;6.936;2022-12-05T12:18:06;5.60;99.90
2459;DHT22;1241;50.920;6.936;2022-12-05T12:23:26;5.70;99.90
2459;DHT22;1241;50.920;6.936;2022-12-05T12:26:19;5.70;99.90
2459;DHT22;1241;50.920;6.936;2022-12-05T12:31:42;5.40;99.90
2459;DHT22;1241;50.920;6.936;2022-12-05T12:36:48;5.60;99.90
2459;DHT22;1241;50.920;6.936;2022-12-05T12:39:23;5.70;99.90
2459;DHT22;1241;50.920;6.936;2022-12-05T12:41:53;5.70;99.90
2459;DHT22;1241;50.920;6.936;2022-12-05T12:44:58;5.70;99.90
2459;DHT22;1241;50.920;6.936;2022-12-05T12:50:32;6.00;99.90
2459;DHT22;1241;50.920;6.936;2022-12-05T12:53:04;6.20;99.90
2459;DHT22;1241;50.920;6.936;2022-12-05T13:01:15;6.20;99.90
2459;DHT22;1241;50.920;6.936;2022-12-05T13:03:51;6.00;99.90
2459;DHT22;1241;50.920;6.936;2022-12-05T13:06:25;6.00;99.90
2459;DHT22;1241;50.920;6.936;2022-12-05T13:09:15;5.90;99.90
2459;DHT22;1241;50.920;6.936;2022-12-05T13:11:44;5.80;99.90
2459;DHT22;1241;50.920;6.936;2022-12-05T13:14:14;5.60;99.90
2459;DHT22;1241;50.920;6.936;2022-12-05T13:16:43;5.60;99.90
2459;DHT22;1241;50.920;6.936;2022-12-05T13:19:41;5.60;99.90
2459;DHT22;1241;50.920;6.936;2022-12-05T13:22:08;5.60;99.90
2459;DHT22;1241;50.920;6.936;2022-12-05T13:24:34;5.50;99.90
2459;DHT22;1241;50.920;6.936;2022-12-05T13:27:16;5.60;99.90
2459;DHT22;1241;50.920;6.936;2022-12-05T13:29:50;5.60;99.90
2459;DHT22;1241;50.920;6.936;2022-12-05T13:34:54;5.40;99.90
2459;DHT22;1241;50.920;6.936;2022-12-05T13:37:24;5.40;99.90
2459;DHT22;1241;50.920;6.936;2022-12-05T13:40:46;5.40;99.90
2459;DHT22;1241;50.920;6.936;2022-12-05T13:43:40;5.50;99.90
2459;DHT22;1241;50.920;6.936;2022-12-05T13:46:09;5.50;99.90
2459;DHT22;1241;50.920;6.936;2022-12-05T13:48:41;5.40;99.90
2459;DHT22;1241;50.920;6.936;2022-12-05T13:53:47;5.40;99.90
2459;DHT22;1241;50.920;6.936;2022-12-05T13:58:53;5.40;99.90
2459;DHT22;1241;50.920;6.936;2022-12-05T14:09:27;5.30;99.90
2459;DHT22;1241;50.920;6.936;2022-12-05T14:17:40;5.10;99.90
2459;DHT22;1241;50.920;6.936;2022-12-05T14:20:17;5.10;99.90
2459;DHT22;1241;50.920;6.936;2022-12-05T14:33:16;4.90;99.90
2459;DHT22;1241;50.920;6.936;2022-12-05T14:35:50;4.90;99.90
2459;DHT22;1241;50.920;6.936;2022-12-05T14:38:28;4.90;99.90
2459;DHT22;1241;50.920;6.936;2022-12-05T14:41:04;4.90;99.90
2459;DHT22;1241;50.920;6.936;2022-12-05T14:43:36;4.80;99.90
2459;DHT22;1241;50.920;6.936;2022-12-05T14:46:06;4.80;99.90
2459;DHT22;1241;50.920;6.936;2022-12-05T14:48:38;4.80;99.90
2459;DHT22;1241;50.920;6.936;2022-12-05T14:53:52;4.70;99.90
2459;DHT22;1241;50.920;6.936;2022-12-05T14:56:24;4.60;99.90
2459;DHT22;1241;50.920;6.936;2022-12-05T14:59:00;4.60;99.90
2459;DHT22;1241;50.920;6.936;2022-12-05T15:04:16;4.50;99.90
2459;DHT22;1241;50.920;6.936;2022-12-05T15:12:19;4.70;99.90
2459;DHT22;1241;50.920;6.936;2022-12-05T15:15:06;4.70;99.90
2459;DHT22;1241;50.920;6.936;2022-12-05T15:17:50;4.70;99.90
2459;DHT22;1241;50.920;6.936;2022-12-05T15:20:33;4.70;99.90
2459;DHT22;1241;50.920;6.936;2022-12-05T15:23:01;4.60;99.90
2459;DHT22;1241;50.920;6.936;2022-12-05T15:25:31;4.70;99.90
2459;DHT22;1241;50.920;6.936;2022-12-05T15:28:03;4.80;99.90
2459;DHT22;1241;50.920;6.936;2022-12-05T15:30:30;4.70;99.90
2459;DHT22;1241;50.920;6.936;2022-12-05T15:32:57;4.70;99.90
2459;DHT22;1241;50.920;6.936;2022-12-05T15:35:26;4.70;99.90
2459;DHT22;1241;50.920;6.936;2022-12-05T15:38:00;4.70;99.90
2459;DHT22;1241;50.920;6.936;2022-12-05T15:40:32;4.80;99.90
2459;DHT22;1241;50.920;6.936;2022-12-05T15:43:02;4.80;99.90
2459;DHT22;1241;50.920;6.936;2022-12-05T15:45:45;4.80;99.90
2459;DHT22;1241;50.920;6.936;2022-12-05T15:48:11;4.70;99.90
2459;DHT22;1241;50.920;6.936;2022-12-05T15:50:41;4.60;99.90
2459;DHT22;1241;50.920;6.936;2022-12-05T15:54:03;4.60;99.90
2459;DHT22;1241;50.920;6.936;2022-12-05T15:56:14;4.60;99.90
2459;DHT22;1241;50.920;6.936;2022-12-05T15:59:00;4.60;99.90
2459;DHT22;1241;50.920;6.936;2022-12-05T16:01:28;4.60;99.90
2459;DHT22;1241;50.920;6.936;2022-12-05T16:04:13;4.50;99.90
2459;DHT22;1241;50.920;6.936;2022-12-05T16:06:50;4.50;99.90
2459;DHT22;1241;50.920;6.936;2022-12-05T16:09:19;4.40;99.90
2459;DHT22;1241;50.920;6.936;2022-12-05T16:11:55;4.50;99.90
2459;DHT22;1241;50.920;6.936;2022-12-05T16:14:22;4.40;99.90
2459;DHT22;1241;50.920;6.936;2022-12-05T16:16:51;4.30;99.90
2459;DHT22;1241;50.920;6.936;2022-12-05T16:19:24;4.30;99.90
2459;DHT22;1241;50.920;6.936;2022-12-05T16:22:22;4.40;99.90
2459;DHT22;1241;50.920;6.936;2022-12-05T16:27:23;4.30;99.90
2459;DHT22;1241;50.920;6.936;2022-12-05T16:30:20;4.30;99.90
2459;DHT22;1241;50.920;6.936;2022-12-05T16:32:47;4.30;99.90
2459;DHT22;1241;50.920;6.936;2022-12-05T16:35:33;4.30;99.90
2459;DHT22;1241;50.920;6.936;2022-12-05T16:38:13;4.30;99.90
2459;DHT22;1241;50.920;6.936;2022-12-05T16:40:52;4.40;99.90
2459;DHT22;1241;50.920;6.936;2022-12-05T16:45:56;4.40;99.90
2459;DHT22;1241;50.920;6.936;2022-12-05T16:48:24;4.30;99.90
2459;DHT22;1241;50.920;6.936;2022-12-05T16:50:52;4.30;99.90
2459;DHT22;1241;50.920;6.936;2022-12-05T16:53:36;4.30;99.90
2459;DHT22;1241;50.920;6.936;2022-12-05T16:56:05;4.30;99.90
2459;DHT22;1241;50.920;6.936;2022-12-05T16:58:33;4.40;99.90
2459;DHT22;1241;50.920;6.936;2022-12-05T17:01:02;4.30;99.90
2459;DHT22;1241;50.920;6.936;2022-12-05T17:03:28;4.40;99.90
2459;DHT22;1241;50.920;6.936;2022-12-05T17:05:54;4.30;99.90
2459;DHT22;1241;50.920;6.936;2022-12-05T17:08:20;4.30;99.90
2459;DHT22;1241;50.920;6.936;2022-12-05T17:10:47;4.30;99.90
2459;DHT22;1241;50.920;6.936;2022-12-05T17:13:14;4.40;99.90
2459;DHT22;1241;50.920;6.936;2022-12-05T17:15:41;4.50;99.90
2459;DHT22;1241;50.920;6.936;2022-12-05T17:18:26;4.30;99.90
2459;DHT22;1241;50.920;6.936;2022-12-05T17:20:53;4.20;99.90
2459;DHT22;1241;50.920;6.936;2022-12-05T17:23:20;4.20;99.90
2459;DHT22;1241;50.920;6.936;2022-12-05T17:25:54;4.10;99.90
2459;DHT22;1241;50.920;6.936;2022-12-05T17:28:21;4.20;99.90
2459;DHT22;1241;50.920;6.936;2022-12-05T17:30:47;4.20;99.90
2459;DHT22;1241;50.920;6.936;2022-12-05T17:33:15;4.20;99.90
2459;DHT22;1241;50.920;6.936;2022-12-05T17:35:41;4.00;99.90
2459;DHT22;1241;50.920;6.936;2022-12-05T17:38:07;4.10;99.90
2459;DHT22;1241;50.920;6.936;2022-12-05T17:40:33;4.10;99.90
2459;DHT22;1241;50.920;6.936;2022-12-05T17:42:59;4.10;99.90
2459;DHT22;1241;50.920;6.936;2022-12-05T17:45:25;4.10;99.90
2459;DHT22;1241;50.920;6.936;2022-12-05T17:47:51;4.10;99.90
2459;DHT22;1241;50.920;6.936;2022-12-05T17:50:19;4.10;99.90
2459;DHT22;1241;50.920;6.936;2022-12-05T17:52:47;4.00;99.90
2459;DHT22;1241;50.920;6.936;2022-12-05T17:55:19;3.90;99.90
2459;DHT22;1241;50.920;6.936;2022-12-05T17:57:45;3.90;99.90
2459;DHT22;1241;50.920;6.936;2022-12-05T18:00:13;3.90;99.90
2459;DHT22;1241;50.920;6.936;2022-12-05T18:02:40;3.90;99.90
2459;DHT22;1241;50.920;6.936;2022-12-05T18:05:06;3.90;99.90
2459;DHT22;1241;50.920;6.936;2022-12-05T18:07:32;3.80;99.90
2459;DHT22;1241;50.920;6.936;2022-12-05T18:09:58;3.90;99.90
2459;DHT22;1241;50.920;6.936;2022-12-05T18:12:23;3.90;99.90
2459;DHT22;1241;50.920;6.936;2022-12-05T18:14:49;3.80;99.90
2459;DHT22;1241;50.920;6.936;2022-12-05T18:17:15;3.80;99.90
2459;DHT22;1241;50.920;6.936;2022-12-05T18:19:41;3.90;99.90
2459;DHT22;1241;50.920;6.936;2022-12-05T18:22:06;3.80;99.90
2459;DHT22;1241;50.920;6.936;2022-12-05T18:24:32;3.80;99.90
2459;DHT22;1241;50.920;6.936;2022-12-05T18:26:58;3.70;99.90
2459;DHT22;1241;50.920;6.936;2022-12-05T18:29:24;3.70;99.90
2459;DHT22;1241;50.920;6.936;2022-12-05T18:31:50;3.70;99.90
2459;DHT22;1241;50.920;6.936;2022-12-05T18:34:16;3.70;99.90
2459;DHT22;1241;50.920;6.936;2022-12-05T18:36:41;3.70;99.90
2459;DHT22;1241;50.920;6.936;2022-12-05T18:39:11;3.70;99.90
2459;DHT22;1241;50.920;6.936;2022-12-05T18:41:37;3.80;99.90
2459;DHT22;1241;50.920;6.936;2022-12-05T18:44:03;3.80;99.90
2459;DHT22;1241;50.920;6.936;2022-12-05T18:46:28;3.80;99.90
2459;DHT22;1241;50.920;6.936;2022-12-05T18:48:54;3.80;99.90
2459;DHT22;1241;50.920;6.936;2022-12-05T18:51:21;3.80;99.90
2459;DHT22;1241;50.920;6.936;2022-12-05T18:53:49;3.70;99.90
2459;DHT22;1241;50.920;6.936;2022-12-05T18:56:23;3.80;99.90
2459;DHT22;1241;50.920;6.936;2022-12-05T18:59:03;3.80;99.90
2459;DHT22;1241;50.920;6.936;2022-12-05T19:01:33;3.80;99.90
2459;DHT22;1241;50.920;6.936;2022-12-05T19:04:01;3.80;99.90
2459;DHT22;1241;50.920;6.936;2022-12-05T19:06:29;3.70;99.90
2459;DHT22;1241;50.920;6.936;2022-12-05T19:09:00;3.80;99.90